Time;durP1;ratioP1;P1;durP2;ratioP2;P2;SDS_P1;SDS_P2;PMS_P1;PMS_P2;Temp;Humidity;BMP_temperature;BMP_pressure;BME280_temperature;BME280_humidity;BME280_pressure;Samples;Min_cycle;Max_cycle;Signal;HPM_P1;HPM_P2
2021/11/25 00:01:28;;;;;;;19.15;15.60;;;11.60;89.30;;;;;;5038788;28;20064;-62
2021/11/25 00:03:54;;;;;;;21.48;15.27;;;11.50;87.90;;;;;;5045078;28;20056;-62
2021/11/25 00:06:20;;;;;;;20.38;14.55;;;11.40;89.20;;;;;;5050741;28;20048;-62
2021/11/25 00:08:46;;;;;;;21.35;16.52;;;11.30;88.50;;;;;;5051346;28;20029;-62
2021/11/25 00:11:11;;;;;;;23.00;15.90;;;11.40;89.50;;;;;;5051698;28;20098;-62
2021/11/25 00:13:37;;;;;;;21.20;15.68;;;11.30;88.90;;;;;;5050799;28;20036;-62
2021/11/25 00:16:03;;;;;;;22.83;16.98;;;11.40;88.30;;;;;;5047229;28;20060;-62
2021/11/25 00:18:29;;;;;;;20.45;15.48;;;11.70;89.20;;;;;;5038809;28;20356;-62
2021/11/25 00:20:54;;;;;;;23.48;16.10;;;11.70;88.90;;;;;;5049958;28;20029;-62
2021/11/25 00:23:20;;;;;;;23.40;16.48;;;11.70;89.10;;;;;;5051306;28;20037;-62
2021/11/25 00:25:46;;;;;;;20.95;15.43;;;11.80;89.10;;;;;;5049737;28;20029;-62
2021/11/25 00:28:12;;;;;;;21.33;16.50;;;11.70;88.90;;;;;;5047160;28;20052;-62
2021/11/25 00:30:37;;;;;;;21.65;15.40;;;11.70;89.30;;;;;;5051383;28;20086;-62
2021/11/25 00:33:04;;;;;;;19.83;15.55;;;11.50;89.80;;;;;;5052847;28;20049;-62
2021/11/25 00:35:30;;;;;;;23.75;15.93;;;11.50;90.00;;;;;;5052055;28;20533;-62
2021/11/25 00:37:55;;;;;;;21.83;15.90;;;11.60;89.60;;;;;;5052205;28;20033;-62
2021/11/25 00:40:21;;;;;;;21.17;16.33;;;11.70;90.00;;;;;;5052113;28;20033;-61
2021/11/25 00:42:47;;;;;;;22.45;16.35;;;11.50;89.40;;;;;;5052455;28;20029;-62
2021/11/25 00:45:14;;;;;;;22.65;16.83;;;11.50;90.00;;;;;;5051723;28;20025;-62
2021/11/25 00:47:40;;;;;;;22.98;16.45;;;11.60;90.10;;;;;;5051592;28;20068;-62
2021/11/25 00:50:07;;;;;;;22.92;16.58;;;11.70;90.00;;;;;;5050723;28;20664;-62
2021/11/25 00:52:33;;;;;;;19.83;15.43;;;11.70;90.00;;;;;;5051933;28;20108;-62
2021/11/25 00:54:59;;;;;;;20.55;15.55;;;11.60;89.80;;;;;;5051730;28;20446;-62
2021/11/25 00:57:24;;;;;;;20.30;15.37;;;11.70;89.70;;;;;;5052836;28;20498;-62
2021/11/25 00:59:51;;;;;;;22.10;16.07;;;11.60;89.50;;;;;;5052108;28;20088;-62
2021/11/25 01:02:18;;;;;;;22.83;15.40;;;11.60;90.00;;;;;;5041208;28;20112;-62
2021/11/25 01:04:44;;;;;;;20.03;15.43;;;11.60;90.20;;;;;;5043425;28;20055;-62
2021/11/25 01:07:10;;;;;;;25.90;16.17;;;11.50;90.00;;;;;;5041358;28;20029;-62
2021/11/25 01:09:36;;;;;;;25.03;16.80;;;11.60;90.30;;;;;;5037823;28;20060;-62
2021/11/25 01:12:02;;;;;;;23.40;16.88;;;11.60;90.00;;;;;;5048826;28;20055;-62
2021/11/25 01:14:30;;;;;;;21.30;16.30;;;11.60;90.30;;;;;;5045541;28;20036;-62
2021/11/25 01:16:56;;;;;;;20.75;16.38;;;11.50;90.30;;;;;;5051589;28;20475;-62
2021/11/25 01:19:23;;;;;;;20.70;15.13;;;11.40;90.10;;;;;;5052975;28;20017;-62
2021/11/25 01:21:49;;;;;;;19.73;15.88;;;11.30;90.20;;;;;;5052093;28;20155;-62
2021/11/25 01:24:16;;;;;;;22.73;15.70;;;;;;;;;;5052665;28;20056;-62
2021/11/25 01:26:41;;;;;;;21.33;15.70;;;11.20;90.50;;;;;;5049945;28;20057;-62
2021/11/25 01:29:07;;;;;;;23.35;17.45;;;11.40;90.60;;;;;;5052071;28;20049;-62
2021/11/25 01:31:33;;;;;;;26.95;17.45;;;11.40;90.40;;;;;;5051767;28;20064;-62
2021/11/25 01:33:59;;;;;;;20.48;15.93;;;11.20;90.50;;;;;;5052460;28;20128;-62
2021/11/25 01:36:25;;;;;;;23.40;17.58;;;;;;;;;;5067290;28;20037;-62
2021/11/25 01:38:50;;;;;;;19.95;16.15;;;11.30;90.50;;;;;;5051875;28;20494;-62
2021/11/25 01:41:17;;;;;;;25.33;16.02;;;11.30;90.40;;;;;;5051449;28;20025;-62
2021/11/25 01:43:43;;;;;;;20.03;15.80;;;11.40;90.30;;;;;;5052494;28;20021;-62
2021/11/25 01:46:17;;;;;;;19.90;14.90;;;11.40;90.30;;;;;;5039442;28;20034;-62
2021/11/25 01:48:44;;;;;;;21.73;14.90;;;11.50;90.50;;;;;;5032374;28;20108;-62
2021/11/25 01:51:11;;;;;;;20.08;15.77;;;11.40;90.50;;;;;;5043244;28;20056;-62
2021/11/25 01:53:37;;;;;;;19.77;15.40;;;11.50;90.40;;;;;;5052335;28;20044;-62
2021/11/25 01:56:07;;;;;;;19.90;13.60;;;11.50;90.00;;;;;;5050613;28;20103;-62
2021/11/25 01:58:33;;;;;;;17.33;14.05;;;11.40;89.90;;;;;;5050950;28;20028;-62
2021/11/25 02:01:01;;;;;;;23.17;15.20;;;;;;;;;;5035850;28;20021;-62
2021/11/25 02:03:27;;;;;;;17.97;14.33;;;11.20;89.00;;;;;;5035953;28;20017;-62
2021/11/25 02:05:54;;;;;;;17.60;14.37;;;11.40;88.90;;;;;;5043357;28;20049;-62
2021/11/25 02:08:20;;;;;;;16.80;13.30;;;11.50;88.40;;;;;;5055787;28;20064;-62
2021/11/25 02:10:48;;;;;;;18.77;14.90;;;11.50;89.10;;;;;;5055035;28;20429;-62
2021/11/25 02:13:14;;;;;;;17.35;13.13;;;11.50;88.20;;;;;;5055620;28;20036;-62
2021/11/25 02:15:40;;;;;;;18.40;14.23;;;11.50;88.80;;;;;;5054502;28;20075;-62
2021/11/25 02:18:11;;;;;;;17.43;14.07;;;11.50;89.50;;;;;;5055115;28;20052;-62
2021/11/25 02:20:39;;;;;;;19.50;15.07;;;;;;;;;;5054496;28;20083;-62
2021/11/25 02:23:07;;;;;;;18.30;13.90;;;;;;;;;;5054146;28;20552;-62
2021/11/25 02:25:34;;;;;;;16.40;14.10;;;;;;;;;;5054415;28;20942;-62
2021/11/25 02:28:00;;;;;;;19.17;14.87;;;11.00;87.10;;;;;;5055479;28;20471;-62
2021/11/25 02:30:26;;;;;;;21.13;14.83;;;10.20;88.00;;;;;;5054303;28;20082;-62
2021/11/25 02:32:52;;;;;;;22.00;15.40;;;10.30;88.00;;;;;;5055051;28;20088;-62
2021/11/25 02:35:28;;;;;;;20.77;15.40;;;10.30;88.20;;;;;;5054184;28;20467;-62
2021/11/25 02:37:54;;;;;;;19.53;14.70;;;10.30;88.30;;;;;;5055451;28;20095;-62
2021/11/25 02:40:22;;;;;;;22.33;16.23;;;10.30;89.20;;;;;;5053221;28;20040;-62
2021/11/25 02:42:51;;;;;;;22.45;16.23;;;10.30;89.10;;;;;;5052950;28;20112;-62
2021/11/25 02:45:19;;;;;;;20.00;15.40;;;10.30;88.00;;;;;;5053360;28;20108;-62
2021/11/25 02:47:44;;;;;;;22.63;17.43;;;10.20;88.10;;;;;;5054257;28;20037;-62
2021/11/25 02:50:10;;;;;;;22.73;16.48;;;10.20;89.10;;;;;;5036115;28;20040;-62
2021/11/25 02:52:41;;;;;;;20.97;16.50;;;10.20;88.70;;;;;;5053622;28;20062;-62
2021/11/25 02:55:08;;;;;;;25.23;17.17;;;10.20;88.20;;;;;;5054462;28;20025;-62
2021/11/25 02:57:35;;;;;;;24.00;17.27;;;10.20;89.00;;;;;;5048455;28;20025;-62
2021/11/25 03:00:00;;;;;;;20.17;16.43;;;10.10;89.20;;;;;;5040539;28;20044;-62
2021/11/25 03:02:26;;;;;;;20.93;17.03;;;10.00;88.60;;;;;;5040320;28;20033;-62
2021/11/25 03:04:51;;;;;;;24.60;17.53;;;9.90;88.50;;;;;;5039501;28;20025;-62
2021/11/25 03:07:17;;;;;;;24.17;16.40;;;10.10;88.90;;;;;;5049882;28;20048;-62
2021/11/25 03:09:42;;;;;;;22.73;16.97;;;10.20;89.20;;;;;;5054827;28;20064;-62
2021/11/25 03:12:09;;;;;;;20.70;17.40;;;10.20;89.60;;;;;;5053722;28;20064;-62
2021/11/25 03:14:35;;;;;;;21.63;17.37;;;10.20;89.60;;;;;;5054758;28;20033;-62
2021/11/25 03:17:00;;;;;;;22.70;17.13;;;10.20;90.40;;;;;;5053734;28;20032;-62
2021/11/25 03:19:27;;;;;;;22.40;17.13;;;;;;;;;;5054475;28;20094;-62
2021/11/25 03:21:53;;;;;;;23.60;17.30;;;;;;;;;;5052399;28;20437;-62
2021/11/25 03:24:19;;;;;;;21.30;17.25;;;;;;;;;;5054349;28;20037;-62
2021/11/25 03:26:45;;;;;;;20.65;16.42;;;9.90;91.00;;;;;;5042699;28;20120;-62
2021/11/25 03:29:10;;;;;;;22.90;16.83;;;10.30;90.60;;;;;;5034472;28;20029;-62
2021/11/25 03:31:36;;;;;;;29.33;18.53;;;10.20;90.10;;;;;;5042632;28;20025;-62
2021/11/25 03:34:03;;;;;;;29.30;19.57;;;10.10;90.40;;;;;;5044405;28;20045;-62
2021/11/25 03:36:29;;;;;;;26.10;17.87;;;10.20;90.40;;;;;;5042063;28;20096;-62
2021/11/25 03:38:56;;;;;;;25.53;18.97;;;10.20;90.40;;;;;;5054082;28;20029;-62
2021/11/25 03:41:22;;;;;;;22.70;17.73;;;10.20;90.30;;;;;;5052049;28;20051;-62
2021/11/25 03:43:48;;;;;;;23.30;17.42;;;10.20;90.20;;;;;;5054004;28;20033;-62
2021/11/25 03:46:14;;;;;;;21.97;16.80;;;10.10;90.20;;;;;;5052315;28;20383;-62
2021/11/25 03:48:40;;;;;;;24.10;17.17;;;10.00;90.20;;;;;;5053930;28;20038;-62
2021/11/25 03:51:08;;;;;;;24.73;17.27;;;;;;;;;;5052734;28;20032;-62
2021/11/25 03:53:37;;;;;;;24.80;17.70;;;;;;;;;;5053828;28;20032;-63
2021/11/25 03:56:04;;;;;;;21.27;16.07;;;10.10;89.60;;;;;;5052768;28;20386;-62
2021/11/25 03:58:29;;;;;;;25.52;17.35;;;10.20;89.30;;;;;;5053539;28;20442;-62
2021/11/25 04:00:55;;;;;;;19.97;16.40;;;10.20;87.70;;;;;;5051859;28;20060;-62
2021/11/25 04:03:22;;;;;;;22.67;17.10;;;10.20;87.70;;;;;;5053441;28;20071;-62
2021/11/25 04:05:49;;;;;;;24.57;17.47;;;;;;;;;;5052374;28;20029;-62
2021/11/25 04:08:17;;;;;;;22.77;18.07;;;;;;;;;;5053674;28;20037;-62
2021/11/25 04:10:43;;;;;;;20.03;16.43;;;;;;;;;;5053141;28;20090;-62
2021/11/25 04:13:09;;;;;;;21.30;15.97;;;;;;;;;;5052968;28;20414;-62
2021/11/25 04:15:35;;;;;;;21.27;16.53;;;10.10;91.80;;;;;;5053269;28;20032;-62
2021/11/25 04:18:00;;;;;;;23.70;16.70;;;10.20;89.10;;;;;;5051590;28;20033;-62
2021/11/25 04:20:27;;;;;;;21.50;16.75;;;10.20;88.20;;;;;;5053242;28;20028;-62
2021/11/25 04:22:52;;;;;;;20.17;16.37;;;10.20;89.10;;;;;;5052044;28;20031;-62
2021/11/25 04:25:18;;;;;;;25.65;18.45;;;10.30;89.60;;;;;;5053281;28;20116;-62
2021/11/25 04:27:44;;;;;;;25.07;18.53;;;10.30;89.10;;;;;;5052064;28;20025;-62
2021/11/25 04:30:23;;;;;;;28.23;19.98;;;10.30;89.00;;;;;;5053024;28;20120;-62
2021/11/25 04:35:36;;;;;;;24.20;20.13;;;10.20;89.40;;;;;;5053298;28;20044;-62
2021/11/25 04:38:16;;;;;;;29.53;20.67;;;10.20;89.80;;;;;;5051914;28;20036;-62
2021/11/25 04:40:55;;;;;;;31.20;20.92;;;10.20;90.30;;;;;;5052037;28;20032;-62
2021/11/25 04:43:22;;;;;;;32.10;20.48;;;10.30;90.00;;;;;;5052705;28;20037;-62
2021/11/25 04:45:50;;;;;;;28.53;21.10;;;10.30;89.40;;;;;;5052707;28;20032;-62
2021/11/25 04:48:19;;;;;;;25.27;20.67;;;10.10;89.50;;;;;;5050726;28;20355;-62
2021/11/25 04:50:46;;;;;;;24.35;19.45;;;10.10;89.50;;;;;;5053002;28;20112;-62
2021/11/25 04:53:12;;;;;;;29.60;20.70;;;10.20;90.00;;;;;;5032542;28;20536;-62
2021/11/25 04:55:39;;;;;;;27.60;21.10;;;10.20;90.30;;;;;;5032648;28;20067;-62
2021/11/25 04:58:05;;;;;;;28.20;20.73;;;10.20;90.40;;;;;;5049820;28;20021;-62
2021/11/25 05:00:31;;;;;;;26.98;19.52;;;10.10;90.10;;;;;;5051867;28;20633;-62
2021/11/25 05:02:56;;;;;;;25.95;19.20;;;10.10;90.30;;;;;;5051458;28;20025;-62
2021/11/25 05:05:22;;;;;;;25.48;19.73;;;10.20;90.60;;;;;;5052647;28;20475;-62
2021/11/25 05:07:48;;;;;;;26.52;19.80;;;10.20;90.50;;;;;;5051431;28;20074;-62
2021/11/25 05:10:14;;;;;;;26.55;19.63;;;10.20;90.20;;;;;;5048066;28;20028;-61
2021/11/25 05:12:40;;;;;;;24.48;19.88;;;10.20;90.30;;;;;;5045327;28;20017;-62
2021/11/25 05:15:08;;;;;;;25.75;19.08;;;10.30;90.50;;;;;;5050485;28;20501;-62
2021/11/25 05:17:34;;;;;;;27.00;19.83;;;10.20;90.10;;;;;;5051801;28;20036;-62
2021/11/25 05:20:00;;;;;;;27.15;20.20;;;10.30;90.40;;;;;;5050521;28;20028;-62
2021/11/25 05:22:26;;;;;;;24.52;19.33;;;10.20;90.00;;;;;;5040379;28;20633;-62
2021/11/25 05:24:52;;;;;;;26.80;20.07;;;10.30;90.20;;;;;;5049918;28;20506;-62
2021/11/25 05:27:17;;;;;;;23.98;17.77;;;10.30;90.20;;;;;;5067025;28;20032;-62
2021/11/25 05:29:43;;;;;;;24.90;18.47;;;10.30;90.20;;;;;;5052973;28;20033;-62
2021/11/25 05:32:11;;;;;;;25.30;17.77;;;10.30;89.30;;;;;;5055299;28;20044;-62
2021/11/25 05:34:38;;;;;;;25.02;18.17;;;10.30;89.20;;;;;;5056501;28;20069;-62
2021/11/25 05:37:03;;;;;;;25.17;18.10;;;10.20;89.70;;;;;;5048673;28;20041;-62
2021/11/25 05:39:29;;;;;;;24.17;18.30;;;10.20;89.60;;;;;;5051074;28;20074;-62
2021/11/25 05:41:54;;;;;;;27.43;17.30;;;10.30;89.70;;;;;;5052873;28;20020;-62
2021/11/25 05:44:20;;;;;;;27.73;17.58;;;10.20;89.00;;;;;;5053910;28;20052;-62
2021/11/25 05:46:46;;;;;;;23.48;16.92;;;10.10;90.00;;;;;;5053924;28;20046;-62
2021/11/25 05:49:11;;;;;;;25.30;19.27;;;10.20;90.20;;;;;;5055735;28;20475;-62
2021/11/25 05:51:37;;;;;;;23.10;17.50;;;10.20;90.30;;;;;;5055155;28;20029;-62
2021/11/25 05:54:02;;;;;;;23.17;17.33;;;10.10;89.10;;;;;;5056057;28;20033;-62
2021/11/25 05:56:28;;;;;;;24.75;17.77;;;10.20;90.00;;;;;;5054651;28;20028;-62
2021/11/25 05:58:56;;;;;;;23.47;17.43;;;10.10;90.00;;;;;;5055292;28;20082;-62
2021/11/25 06:01:23;;;;;;;23.93;17.50;;;10.00;90.10;;;;;;5053449;28;20025;-62
2021/11/25 06:03:53;;;;;;;23.33;17.53;;;10.10;90.10;;;;;;5043813;28;20029;-62
2021/11/25 06:06:22;;;;;;;26.53;19.33;;;10.10;90.10;;;;;;5055599;28;20117;-61
2021/11/25 06:08:49;;;;;;;25.13;18.63;;;10.20;90.30;;;;;;5055295;28;20029;-62
2021/11/25 06:11:15;;;;;;;27.33;19.27;;;10.20;90.40;;;;;;5055521;28;20017;-62
2021/11/25 06:13:41;;;;;;;27.13;19.88;;;10.20;90.60;;;;;;5036300;28;20116;-62
2021/11/25 06:16:07;;;;;;;27.67;20.13;;;10.10;90.80;;;;;;5035566;28;20053;-62
2021/11/25 06:18:33;;;;;;;28.83;19.20;;;10.20;90.70;;;;;;5052496;28;20028;-62
2021/11/25 06:20:59;;;;;;;23.40;18.37;;;10.10;90.50;;;;;;5055322;28;20035;-62
2021/11/25 06:23:24;;;;;;;31.90;20.20;;;10.10;90.30;;;;;;5054209;28;20115;-62
2021/11/25 06:25:50;;;;;;;28.50;21.07;;;10.00;90.50;;;;;;5055333;28;20414;-62
2021/11/25 06:28:16;;;;;;;25.23;20.53;;;10.10;90.60;;;;;;5054193;28;20068;-62
2021/11/25 06:31:06;;;;;;;27.87;20.33;;;10.10;90.70;;;;;;5051354;28;20091;-62
2021/11/25 06:33:32;;;;;;;32.57;20.67;;;10.10;90.70;;;;;;5051603;28;20049;-62
2021/11/25 06:35:57;;;;;;;30.50;21.73;;;10.00;90.30;;;;;;5039021;28;20033;-62
2021/11/25 06:38:23;;;;;;;30.23;21.07;;;9.90;90.20;;;;;;5039592;28;20031;-62
2021/11/25 06:40:49;;;;;;;28.67;21.57;;;9.90;90.30;;;;;;5039151;28;20024;-61
2021/11/25 06:43:15;;;;;;;24.98;20.08;;;9.90;89.70;;;;;;5052774;28;20048;-62
2021/11/25 06:45:42;;;;;;;27.80;19.97;;;9.80;90.00;;;;;;5054706;28;20059;-62
2021/11/25 06:48:08;;;;;;;24.50;19.60;;;9.90;89.90;;;;;;5054444;28;20029;-62
2021/11/25 06:50:34;;;;;;;26.57;20.50;;;10.00;90.00;;;;;;5055310;28;20104;-62
2021/11/25 06:53:00;;;;;;;27.93;19.50;;;10.10;88.70;;;;;;5053751;28;20471;-61
2021/11/25 06:55:26;;;;;;;25.37;19.30;;;10.00;87.70;;;;;;5053851;28;20039;-61
2021/11/25 06:57:52;;;;;;;28.95;18.83;;;9.90;89.40;;;;;;5053841;28;20509;-61
2021/11/25 07:00:22;;;;;;;27.77;19.77;;;9.90;89.40;;;;;;5054722;28;20033;-61
2021/11/25 07:02:49;;;;;;;27.97;20.83;;;9.80;88.70;;;;;;5053874;28;20425;-61
2021/11/25 07:05:14;;;;;;;25.77;20.60;;;9.90;89.30;;;;;;5053502;28;20029;-61
2021/11/25 07:07:40;;;;;;;26.70;21.33;;;9.80;88.80;;;;;;5049969;28;20071;-61
2021/11/25 07:10:08;;;;;;;28.73;21.27;;;10.00;89.60;;;;;;5034908;28;20029;-62
2021/11/25 07:12:35;;;;;;;29.03;21.17;;;9.90;88.80;;;;;;5052711;28;20029;-62
2021/11/25 07:15:03;;;;;;;29.93;22.20;;;10.00;89.30;;;;;;5054193;28;20036;-61
2021/11/25 07:17:28;;;;;;;31.20;21.53;;;10.00;89.40;;;;;;5048472;28;20021;-62
2021/11/25 07:19:54;;;;;;;26.80;20.33;;;9.90;89.20;;;;;;5054433;28;20037;-62
2021/11/25 07:22:20;;;;;;;29.13;19.57;;;9.90;89.90;;;;;;5049576;28;20033;-61
2021/11/25 07:24:46;;;;;;;28.97;20.97;;;9.90;88.80;;;;;;5034072;28;20037;-62
2021/11/25 07:27:12;;;;;;;31.23;20.50;;;9.90;87.90;;;;;;5041243;28;20029;-61
2021/11/25 07:29:38;;;;;;;31.33;20.50;;;10.00;88.80;;;;;;5047678;28;20029;-61
2021/11/25 07:32:04;;;;;;;22.27;18.10;;;10.00;86.60;;;;;;5040997;28;20033;-62
2021/11/25 07:34:30;;;;;;;23.70;17.13;;;10.00;88.00;;;;;;5044776;28;20057;-61
2021/11/25 07:36:55;;;;;;;24.48;17.73;;;10.00;84.90;;;;;;5039519;28;20033;-61
2021/11/25 07:39:21;;;;;;;28.43;19.23;;;10.00;87.50;;;;;;5045220;28;20463;-61
2021/11/25 07:41:46;;;;;;;22.58;16.73;;;10.10;87.40;;;;;;5048074;28;20025;-61
2021/11/25 07:44:12;;;;;;;21.67;16.60;;;10.10;87.40;;;;;;5058978;28;20033;-62
2021/11/25 07:46:38;;;;;;;24.40;17.20;;;10.10;87.00;;;;;;5039015;28;20032;-62
2021/11/25 07:49:04;;;;;;;22.45;16.13;;;10.20;86.60;;;;;;5051462;28;20040;-62
2021/11/25 07:51:31;;;;;;;22.58;16.42;;;10.00;85.30;;;;;;5052035;28;20071;-61
2021/11/25 07:53:58;;;;;;;22.40;16.48;;;10.10;87.00;;;;;;5050763;28;20047;-62
2021/11/25 07:56:24;;;;;;;23.87;16.77;;;10.30;85.10;;;;;;5053502;28;20052;-62
2021/11/25 07:58:50;;;;;;;22.55;17.08;;;10.20;83.50;;;;;;5048811;28;20041;-62
2021/11/25 08:01:15;;;;;;;23.47;15.57;;;10.30;84.90;;;;;;5044585;28;20032;-62
2021/11/25 08:03:41;;;;;;;20.27;15.63;;;10.30;84.10;;;;;;5051112;28;20081;-62
2021/11/25 08:06:07;;;;;;;21.13;15.55;;;10.30;82.70;;;;;;5035534;28;20096;-61
2021/11/25 08:08:32;;;;;;;23.25;16.02;;;10.30;83.50;;;;;;5037784;28;20037;-61
2021/11/25 08:11:02;;;;;;;25.77;16.30;;;10.20;83.30;;;;;;5033412;28;20021;-62
2021/11/25 08:13:30;;;;;;;22.02;16.45;;;10.20;84.00;;;;;;5046979;28;20045;-62
2021/11/25 08:15:56;;;;;;;26.83;16.48;;;10.20;83.40;;;;;;5049431;28;20018;-62
2021/11/25 08:18:22;;;;;;;24.35;15.63;;;10.30;83.50;;;;;;5042642;28;20025;-62
2021/11/25 08:20:47;;;;;;;25.77;16.77;;;10.30;83.90;;;;;;5044667;28;20035;-62
2021/11/25 08:23:13;;;;;;;21.92;16.30;;;10.20;84.00;;;;;;5050305;28;20028;-62
2021/11/25 08:25:39;;;;;;;23.77;16.77;;;10.20;81.90;;;;;;5052669;28;20024;-62
2021/11/25 08:28:04;;;;;;;23.40;17.13;;;10.20;84.40;;;;;;5048978;28;20021;-62
2021/11/25 08:30:31;;;;;;;21.53;17.20;;;10.10;83.20;;;;;;5044135;28;20028;-61
2021/11/25 08:32:57;;;;;;;23.85;17.75;;;10.00;85.60;;;;;;5037292;28;20158;-62
2021/11/25 08:35:23;;;;;;;26.93;17.93;;;10.00;85.40;;;;;;5041474;28;20117;-61
2021/11/25 08:37:49;;;;;;;25.30;17.98;;;10.00;88.60;;;;;;5039998;28;20025;-62
2021/11/25 08:40:16;;;;;;;24.97;18.63;;;10.00;90.60;;;;;;5044414;28;20025;-61
2021/11/25 08:42:43;;;;;;;25.40;19.13;;;;;;;;;;5048780;28;20040;-61
2021/11/25 08:45:09;;;;;;;35.63;19.87;;;9.30;85.10;;;;;;5042249;28;20387;-61
2021/11/25 08:47:35;;;;;;;23.60;16.53;;;9.00;91.30;;;;;;5042357;28;20017;-62
2021/11/25 08:50:01;;;;;;;30.27;20.07;;;8.70;95.00;;;;;;5050159;28;20403;-61
2021/11/25 08:52:27;;;;;;;28.43;19.53;;;;;;;;;;5051085;28;20036;-61
2021/11/25 08:54:53;;;;;;;31.53;21.60;;;;;;;;;;5041778;28;20111;-61
2021/11/25 08:57:18;;;;;;;32.07;21.87;;;8.70;99.90;;;;;;5044034;28;20310;-61
2021/11/25 08:59:44;;;;;;;31.70;21.30;;;8.40;99.90;;;;;;5051315;28;20086;-61
2021/11/25 09:02:12;;;;;;;28.43;21.53;;;;;;;;;;5047006;28;20044;-60
2021/11/25 09:04:37;;;;;;;29.43;21.30;;;8.10;99.90;;;;;;5049641;28;20033;-61
2021/11/25 09:07:04;;;;;;;29.27;21.03;;;8.30;99.90;;;;;;5048252;28;20028;-62
2021/11/25 09:09:30;;;;;;;32.17;22.93;;;8.30;99.90;;;;;;5055152;28;20025;-62
2021/11/25 09:11:55;;;;;;;30.33;22.97;;;8.30;99.90;;;;;;5043910;28;20082;-62
2021/11/25 09:14:21;;;;;;;31.10;20.77;;;8.40;99.90;;;;;;5039191;28;20041;-62
2021/11/25 09:16:49;;;;;;;34.53;24.10;;;8.40;99.90;;;;;;5043794;28;20023;-61
2021/11/25 09:19:15;;;;;;;35.43;23.50;;;8.30;99.90;;;;;;5045289;28;20039;-61
2021/11/25 09:21:41;;;;;;;35.33;23.77;;;8.50;99.90;;;;;;5043820;28;20025;-61
2021/11/25 09:24:08;;;;;;;31.27;23.87;;;8.50;99.90;;;;;;5047769;28;20056;-61
2021/11/25 09:26:35;;;;;;;35.17;22.47;;;8.60;99.90;;;;;;5052541;28;20036;-61
2021/11/25 09:29:01;;;;;;;33.87;24.80;;;8.40;99.90;;;;;;5050741;28;20098;-60
2021/11/25 09:31:31;;;;;;;34.07;24.23;;;8.50;99.90;;;;;;5052970;28;20462;-60
2021/11/25 09:33:58;;;;;;;32.40;22.97;;;8.40;99.90;;;;;;5050683;28;20049;-61
2021/11/25 09:36:25;;;;;;;37.97;25.30;;;8.30;99.90;;;;;;5046810;28;20494;-61
2021/11/25 09:38:51;;;;;;;40.60;27.37;;;8.40;99.90;;;;;;5041870;28;20045;-60
2021/11/25 09:41:17;;;;;;;37.80;24.90;;;8.30;99.90;;;;;;5044792;28;20105;-62
2021/11/25 09:43:43;;;;;;;37.57;25.17;;;8.30;99.90;;;;;;5049409;28;20108;-62
2021/11/25 09:46:10;;;;;;;37.33;28.03;;;8.40;99.90;;;;;;5049262;28;20548;-60
2021/11/25 09:48:38;;;;;;;39.80;26.03;;;8.60;99.90;;;;;;5047793;28;20033;-61
2021/11/25 09:51:06;;;;;;;34.37;23.93;;;8.60;99.90;;;;;;5048913;28;20024;-61
2021/11/25 09:53:33;;;;;;;38.93;27.33;;;8.50;99.90;;;;;;5049905;28;20498;-61
2021/11/25 09:56:00;;;;;;;35.43;24.27;;;8.40;99.90;;;;;;5048241;28;20053;-60
2021/11/25 09:58:28;;;;;;;36.40;28.77;;;8.40;99.90;;;;;;5055185;28;20096;-60
2021/11/25 10:01:04;;;;;;;38.00;27.30;;;8.60;99.90;;;;;;5051789;28;20067;-60
2021/11/25 10:03:32;;;;;;;34.40;25.37;;;8.50;99.90;;;;;;5053085;28;20156;-60
2021/11/25 10:05:59;;;;;;;34.87;25.13;;;8.20;99.90;;;;;;5051296;28;20095;-60
2021/11/25 10:08:29;;;;;;;40.63;27.50;;;8.20;99.90;;;;;;5048509;28;20032;-60
2021/11/25 10:11:03;;;;;;;35.97;26.27;;;8.30;99.90;;;;;;5051779;28;20052;-59
2021/11/25 10:13:47;;;;;;;36.10;27.35;;;8.30;99.90;;;;;;5055448;28;20033;-60
2021/11/25 10:16:17;;;;;;;39.97;28.17;;;8.40;99.90;;;;;;5053690;28;20360;-59
2021/11/25 10:18:43;;;;;;;39.30;29.43;;;8.30;99.90;;;;;;5054285;28;20425;-60
2021/11/25 10:21:14;;;;;;;46.33;30.80;;;8.10;99.90;;;;;;5054269;28;20126;-60
2021/11/25 10:23:40;;;;;;;39.00;27.47;;;8.30;99.90;;;;;;5055099;28;20487;-60
2021/11/25 10:26:20;;;;;;;42.03;30.17;;;8.30;99.90;;;;;;5049636;28;20479;-61
2021/11/25 10:28:53;;;;;;;37.03;29.03;;;8.30;99.90;;;;;;5051797;28;20502;-61
2021/11/25 10:31:31;;;;;;;42.97;29.53;;;8.20;99.90;;;;;;5054408;28;20071;-61
2021/11/25 10:34:08;;;;;;;42.80;30.17;;;8.50;99.90;;;;;;5054705;28;20502;-60
2021/11/25 10:42:03;;;;;;;42.10;31.03;;;8.60;99.90;;;;;;5033168;28;20441;-61
2021/11/25 10:44:52;;;;;;;44.97;31.30;;;8.30;99.90;;;;;;5055030;28;20061;-60
2021/11/25 10:47:21;;;;;;;42.97;29.97;;;8.10;99.90;;;;;;5045099;28;20493;-60
2021/11/25 10:49:57;;;;;;;42.07;28.20;;;8.20;99.90;;;;;;5041514;28;20025;-60
2021/11/25 10:52:31;;;;;;;40.50;27.87;;;8.10;99.90;;;;;;5044679;28;20044;-60
2021/11/25 10:55:09;;;;;;;40.42;28.95;;;7.90;99.90;;;;;;5035523;28;20140;-60
2021/11/25 10:57:40;;;;;;;47.73;31.63;;;8.00;99.90;;;;;;5048003;28;20025;-59
2021/11/25 11:00:26;;;;;;;43.27;29.10;;;8.30;99.90;;;;;;5054303;28;20055;-59
2021/11/25 11:03:05;;;;;;;39.60;27.73;;;8.20;99.90;;;;;;5065942;28;20571;-59
2021/11/25 11:05:47;;;;;;;35.97;28.00;;;8.00;99.90;;;;;;5052193;28;20040;-60
2021/11/25 11:08:13;;;;;;;47.00;30.63;;;8.10;99.90;;;;;;5047778;28;20028;-61
2021/11/25 11:10:54;;;;;;;39.00;27.90;;;7.80;99.90;;;;;;5053068;28;20029;-58
2021/11/25 11:13:36;;;;;;;41.93;30.50;;;7.90;99.90;;;;;;5052886;28;20120;-61
2021/11/25 11:18:53;;;;;;;38.73;27.23;;;8.20;99.90;;;;;;5050427;28;20425;-59
2021/11/25 11:21:42;;;;;;;37.53;25.42;;;8.00;99.90;;;;;;5054148;28;20097;-60
2021/11/25 11:24:10;;;;;;;34.90;24.93;;;8.10;99.90;;;;;;5052025;28;20029;-60
2021/11/25 11:26:42;;;;;;;37.30;27.47;;;8.10;99.90;;;;;;5050783;28;20054;-60
2021/11/25 11:29:09;;;;;;;41.17;28.53;;;8.20;99.90;;;;;;5048655;28;20052;-60
2021/11/25 11:31:36;;;;;;;40.07;27.23;;;8.30;99.90;;;;;;5042380;28;20525;-60
2021/11/25 11:34:04;;;;;;;38.90;28.20;;;8.10;99.90;;;;;;5050599;28;20068;-60
2021/11/25 11:36:31;;;;;;;34.67;26.90;;;8.30;99.90;;;;;;5047114;28;20053;-60
2021/11/25 11:38:58;;;;;;;40.33;28.60;;;8.30;99.90;;;;;;5043746;28;20025;-60
2021/11/25 11:41:24;;;;;;;39.60;28.47;;;8.60;99.90;;;;;;5052701;28;20029;-60
2021/11/25 11:43:50;;;;;;;39.43;28.13;;;8.40;99.90;;;;;;5043400;28;20025;-60
2021/11/25 11:46:16;;;;;;;37.00;27.00;;;8.40;99.90;;;;;;5042324;28;20084;-60
2021/11/25 11:48:44;;;;;;;41.97;30.37;;;8.50;99.90;;;;;;5049182;28;20390;-61
2021/11/25 11:51:16;;;;;;;46.13;30.83;;;8.60;99.90;;;;;;5048924;28;20022;-60
2021/11/25 11:53:45;;;;;;;45.33;31.83;;;8.50;99.90;;;;;;5050887;28;20495;-60
2021/11/25 11:56:13;;;;;;;48.20;33.97;;;8.70;99.90;;;;;;5052652;28;20029;-60
2021/11/25 11:58:40;;;;;;;50.90;35.03;;;8.50;99.90;;;;;;5052179;28;20094;-61
2021/11/25 12:01:13;;;;;;;49.93;34.87;;;8.30;99.90;;;;;;5033668;28;20030;-61
2021/11/25 12:03:43;;;;;;;47.40;32.73;;;8.50;99.90;;;;;;5049798;28;20056;-61
2021/11/25 12:06:09;;;;;;;41.73;30.37;;;8.30;99.90;;;;;;5053567;28;20032;-60
2021/11/25 12:08:35;;;;;;;45.27;33.40;;;8.10;99.90;;;;;;5049545;28;20028;-61
2021/11/25 12:11:01;;;;;;;51.73;35.63;;;8.20;99.90;;;;;;5053440;28;20486;-60
2021/11/25 12:13:29;;;;;;;43.07;30.63;;;8.70;99.90;;;;;;5063011;28;20119;-60
2021/11/25 12:16:18;;;;;;;43.37;31.40;;;8.40;99.90;;;;;;5052531;28;20049;-60
2021/11/25 12:18:53;;;;;;;42.13;31.73;;;8.50;99.90;;;;;;5046689;28;20026;-59
2021/11/25 12:21:44;;;;;;;41.83;30.98;;;8.50;99.90;;;;;;5042243;28;20025;-59
2021/11/25 12:24:12;;;;;;;44.03;30.97;;;8.60;99.90;;;;;;5026954;28;20091;-60
2021/11/25 12:27:21;;;;;;;46.53;32.33;;;8.40;99.90;;;;;;5046537;28;20448;-61
2021/11/25 12:35:14;;;;;;;46.63;32.07;;;8.90;99.90;;;;;;5051220;28;20048;-61
2021/11/25 12:37:46;;;;;;;45.40;34.30;;;8.60;99.90;;;;;;5046253;28;20505;-60
2021/11/25 12:40:17;;;;;;;40.33;31.80;;;8.40;99.90;;;;;;5051509;28;20039;-60
2021/11/25 12:42:44;;;;;;;40.97;31.47;;;8.60;99.90;;;;;;5045346;28;20057;-60
2021/11/25 12:45:18;;;;;;;44.47;30.53;;;8.60;99.90;;;;;;5035231;28;20025;-60
2021/11/25 12:47:45;;;;;;;37.17;29.73;;;8.50;99.90;;;;;;5051754;28;20036;-60
2021/11/25 12:50:19;;;;;;;42.07;30.40;;;8.20;99.90;;;;;;5050719;28;20039;-60
2021/11/25 12:52:45;;;;;;;41.88;30.23;;;8.20;99.90;;;;;;5045107;28;20028;-61
2021/11/25 12:55:12;;;;;;;40.43;30.90;;;8.10;99.90;;;;;;5068477;28;20033;-60